createdAt,value
2017-07-21T00:00:52.209Z,99.90
2017-07-21T00:03:20.645Z,99.90
2017-07-21T00:05:49.119Z,99.90
2017-07-21T00:08:18.846Z,99.90
2017-07-21T00:10:47.328Z,99.90
2017-07-21T00:13:15.752Z,99.90
2017-07-21T00:15:44.183Z,99.90
2017-07-21T00:18:12.702Z,99.90
2017-07-21T00:20:41.131Z,99.90
2017-07-21T00:23:10.333Z,99.90
2017-07-21T00:25:39.588Z,99.90
2017-07-21T00:28:08.430Z,99.90
2017-07-21T00:30:36.897Z,99.90
2017-07-21T00:33:05.385Z,99.90
2017-07-21T00:35:34.579Z,99.90
2017-07-21T00:38:03.020Z,99.90
2017-07-21T00:40:31.489Z,99.90
2017-07-21T00:42:59.923Z,99.90
2017-07-21T00:45:29.096Z,99.90
2017-07-21T00:47:57.533Z,99.90
2017-07-21T00:50:25.958Z,99.90
2017-07-21T00:52:54.464Z,99.90
2017-07-21T00:55:22.904Z,99.90
2017-07-21T00:57:51.341Z,99.90
2017-07-21T01:00:20.212Z,99.90
2017-07-21T01:02:49.453Z,99.90
2017-07-21T01:05:18.216Z,99.90
2017-07-21T01:07:46.648Z,99.90
2017-07-21T01:10:15.076Z,99.90
2017-07-21T01:12:43.568Z,99.90
2017-07-21T01:15:12.013Z,99.90
2017-07-21T01:17:40.844Z,99.90
2017-07-21T01:20:09.333Z,99.90
2017-07-21T01:22:37.778Z,99.90
2017-07-21T01:25:07.747Z,99.90
2017-07-21T01:27:36.243Z,99.90
2017-07-21T01:30:04.700Z,99.90
2017-07-21T01:32:33.130Z,99.90
2017-07-21T01:35:01.619Z,99.90
2017-07-21T01:37:30.835Z,99.90
2017-07-21T01:39:59.291Z,99.90
2017-07-21T01:42:28.344Z,99.90
2017-07-21T01:44:56.824Z,99.90
2017-07-21T01:47:25.269Z,99.90
2017-07-21T01:49:53.363Z,99.90
2017-07-21T01:52:21.837Z,99.90
2017-07-21T01:54:50.259Z,99.90
2017-07-21T01:57:18.451Z,99.90
2017-07-21T01:59:46.889Z,99.90
2017-07-21T02:02:15.717Z,99.90
2017-07-21T02:04:44.618Z,99.90
2017-07-21T02:07:13.451Z,99.90
2017-07-21T02:09:41.939Z,99.90
2017-07-21T02:12:10.376Z,99.90
2017-07-21T02:14:38.826Z,99.90
2017-07-21T02:17:07.336Z,99.90
2017-07-21T02:19:35.864Z,99.90
2017-07-21T02:22:04.299Z,99.90
2017-07-21T02:24:33.194Z,99.90
2017-07-21T02:27:02.037Z,99.90
2017-07-21T02:29:30.473Z,99.90
2017-07-21T02:31:58.967Z,99.90
2017-07-21T02:34:27.405Z,99.90
2017-07-21T02:36:55.842Z,99.90
2017-07-21T02:39:24.742Z,99.90
2017-07-21T02:41:53.181Z,99.90
2017-07-21T02:44:21.613Z,99.90
2017-07-21T02:46:50.503Z,99.90
2017-07-21T02:49:18.950Z,99.90
2017-07-21T02:51:47.403Z,99.90
2017-07-21T02:54:15.887Z,99.90
2017-07-21T02:56:45.084Z,99.90
2017-07-21T02:59:13.515Z,99.90
2017-07-21T03:01:41.995Z,99.90
2017-07-21T03:04:10.868Z,99.90
2017-07-21T03:06:39.316Z,99.90
2017-07-21T03:09:07.798Z,99.90
2017-07-21T03:11:36.261Z,99.90
2017-07-21T03:14:04.745Z,99.90
2017-07-21T03:16:33.631Z,99.90
2017-07-21T03:19:02.067Z,99.90
2017-07-21T03:21:30.557Z,99.90
2017-07-21T03:23:59.023Z,99.90
2017-07-21T03:26:28.275Z,99.90
2017-07-21T03:28:56.728Z,99.90
2017-07-21T03:31:25.166Z,99.90
2017-07-21T03:33:54.449Z,99.90
2017-07-21T03:36:23.276Z,99.90
2017-07-21T03:38:51.727Z,99.90
2017-07-21T03:41:20.905Z,99.90
2017-07-21T03:43:50.119Z,99.90
2017-07-21T03:46:18.548Z,99.90
2017-07-21T03:48:48.549Z,99.90
2017-07-21T03:51:16.981Z,99.90
2017-07-21T03:53:45.461Z,99.90
2017-07-21T03:56:13.955Z,99.90
2017-07-21T03:58:42.785Z,99.90
2017-07-21T04:01:11.221Z,99.90
2017-07-21T04:03:39.703Z,99.90
2017-07-21T04:06:08.901Z,99.90
2017-07-21T04:08:38.184Z,99.90
2017-07-21T04:11:07.440Z,99.90
2017-07-21T04:13:35.891Z,99.90
2017-07-21T04:16:04.371Z,99.90
2017-07-21T04:18:33.196Z,99.90
2017-07-21T04:21:01.668Z,99.90
2017-07-21T04:23:30.875Z,99.90
2017-07-21T04:25:59.319Z,99.90
2017-07-21T04:28:28.196Z,99.90
2017-07-21T04:30:57.015Z,99.90
2017-07-21T04:33:25.459Z,99.90
2017-07-21T04:35:54.940Z,99.90
2017-07-21T04:38:23.378Z,99.90
2017-07-21T04:40:52.205Z,99.90
2017-07-21T04:43:21.093Z,99.90
2017-07-21T04:45:49.524Z,99.90
2017-07-21T04:48:17.963Z,99.90
2017-07-21T04:50:46.448Z,99.90
2017-07-21T04:53:15.668Z,99.90
2017-07-21T04:55:44.133Z,99.90
2017-07-21T04:58:12.635Z,99.90
2017-07-21T05:00:41.459Z,99.90
2017-07-21T05:03:09.890Z,99.90
2017-07-21T05:05:38.395Z,99.90
2017-07-21T05:08:06.833Z,99.90
2017-07-21T05:10:35.293Z,99.90
2017-07-21T05:13:03.775Z,99.90
2017-07-21T05:15:32.232Z,99.90
2017-07-21T05:18:01.072Z,99.90
2017-07-21T05:20:29.556Z,99.90
2017-07-21T05:22:58.010Z,99.90
2017-07-21T05:25:26.441Z,99.90
2017-07-21T05:27:55.309Z,99.90
2017-07-21T05:30:24.850Z,99.90
2017-07-21T05:32:53.316Z,99.90
2017-07-21T05:35:21.749Z,99.90
2017-07-21T05:37:50.239Z,99.90
2017-07-21T05:40:19.450Z,99.90
2017-07-21T05:42:48.288Z,99.40
2017-07-21T05:45:16.719Z,99.90
2017-07-21T05:47:45.753Z,99.90
2017-07-21T05:50:14.218Z,99.90
2017-07-21T05:52:42.651Z,99.90
2017-07-21T05:55:11.182Z,99.90
2017-07-21T05:57:39.615Z,99.90
2017-07-21T06:00:08.152Z,99.90
2017-07-21T06:02:37.344Z,99.90
2017-07-21T06:05:06.181Z,99.90
2017-07-21T06:07:34.649Z,90.90
2017-07-21T06:10:03.213Z,95.10
2017-07-21T06:12:32.191Z,83.40
2017-07-21T06:15:01.464Z,86.40
2017-07-21T06:17:30.283Z,93.50
2017-07-21T06:19:58.706Z,79.00
2017-07-21T06:22:27.196Z,75.80
2017-07-21T06:24:55.629Z,83.00
2017-07-21T06:27:24.832Z,81.30
2017-07-21T06:29:53.824Z,79.70
2017-07-21T06:32:22.262Z,76.10
2017-07-21T06:34:50.697Z,77.20
2017-07-21T06:37:19.185Z,72.30
2017-07-21T06:39:47.611Z,62.50
2017-07-21T06:42:16.091Z,63.90
2017-07-21T06:44:44.519Z,61.50
2017-07-21T06:47:12.944Z,61.30
2017-07-21T06:49:41.417Z,62.20
2017-07-21T06:52:10.239Z,65.60
2017-07-21T06:54:39.126Z,59.00
2017-07-21T06:57:07.560Z,55.60
2017-07-21T06:59:36.014Z,53.50
2017-07-21T07:02:04.946Z,51.10
2017-07-21T07:04:34.144Z,50.60
2017-07-21T07:07:02.572Z,48.20
2017-07-21T07:09:31.052Z,45.70
2017-07-21T07:12:00.190Z,44.10
2017-07-21T07:14:28.654Z,41.10
2017-07-21T07:16:57.509Z,39.70
2017-07-21T07:19:25.993Z,40.30
2017-07-21T07:21:55.428Z,40.30
2017-07-21T07:24:23.885Z,43.00
2017-07-21T07:26:53.137Z,44.50
2017-07-21T07:29:21.574Z,47.10
2017-07-21T07:31:50.093Z,47.00
2017-07-21T07:34:18.531Z,49.70
2017-07-21T07:36:47.364Z,47.60
2017-07-21T07:39:16.256Z,44.80
2017-07-21T07:41:44.695Z,44.40
2017-07-21T07:44:13.129Z,41.10
2017-07-21T07:46:41.994Z,42.10
2017-07-21T07:49:10.480Z,41.00
2017-07-21T07:51:39.680Z,40.30
2017-07-21T07:54:08.116Z,41.30
2017-07-21T07:56:36.612Z,39.80
2017-07-21T07:59:05.062Z,40.30
2017-07-21T08:01:33.885Z,41.60
2017-07-21T08:04:02.355Z,36.20
2017-07-21T08:06:30.808Z,37.40
2017-07-21T08:08:59.275Z,36.90
2017-07-21T08:11:27.787Z,35.60
2017-07-21T08:13:56.262Z,35.60
2017-07-21T08:16:24.501Z,35.00
2017-07-21T08:18:52.997Z,32.50
2017-07-21T08:21:21.302Z,33.20
2017-07-21T08:23:49.751Z,35.80
2017-07-21T08:26:18.182Z,36.10
2017-07-21T08:28:47.054Z,35.80
2017-07-21T08:31:15.482Z,32.80
2017-07-21T08:33:43.969Z,35.60
2017-07-21T08:36:12.783Z,36.00
2017-07-21T08:38:41.208Z,34.50
2017-07-21T08:41:09.694Z,33.10
2017-07-21T08:43:38.118Z,35.30
2017-07-21T08:46:06.553Z,36.00
2017-07-21T08:48:35.058Z,37.80
2017-07-21T08:51:04.505Z,38.50
2017-07-21T08:53:33.714Z,34.60
2017-07-21T08:56:03.292Z,35.20
2017-07-21T08:58:32.144Z,31.90
2017-07-21T09:01:00.594Z,30.30
2017-07-21T09:03:29.013Z,29.60
2017-07-21T09:05:58.460Z,31.80
2017-07-21T09:08:26.884Z,34.40
2017-07-21T09:10:55.307Z,31.40
2017-07-21T09:13:24.183Z,31.70
2017-07-21T09:15:52.607Z,31.40
2017-07-21T09:18:22.234Z,32.20
2017-07-21T09:20:51.289Z,32.60
2017-07-21T09:23:20.524Z,32.90
2017-07-21T09:25:48.952Z,33.50
2017-07-21T09:28:17.444Z,30.60
2017-07-21T09:30:45.877Z,33.70
2017-07-21T09:33:14.311Z,33.20
2017-07-21T09:35:43.176Z,33.10
2017-07-21T09:38:11.658Z,35.30
2017-07-21T09:40:40.484Z,34.70
2017-07-21T09:43:08.984Z,31.60
2017-07-21T09:45:37.237Z,28.40
2017-07-21T09:48:06.070Z,31.90
2017-07-21T09:50:34.516Z,34.90
2017-07-21T09:53:03.389Z,37.10
2017-07-21T09:55:31.895Z,34.90
2017-07-21T09:58:00.325Z,32.40
2017-07-21T10:00:28.815Z,35.00
2017-07-21T10:02:58.013Z,36.00
2017-07-21T10:05:26.448Z,32.50
2017-07-21T10:07:55.351Z,30.90
2017-07-21T10:10:24.558Z,31.20
2017-07-21T10:12:52.996Z,29.10
2017-07-21T10:15:21.490Z,31.70
2017-07-21T10:17:50.326Z,30.50
2017-07-21T10:20:18.777Z,32.00
2017-07-21T10:22:47.696Z,31.90
2017-07-21T10:25:16.125Z,32.00
2017-07-21T10:27:44.572Z,30.50
2017-07-21T10:30:13.041Z,32.20
2017-07-21T10:32:42.328Z,30.00
2017-07-21T10:35:11.534Z,34.40
2017-07-21T10:37:40.363Z,31.60
2017-07-21T10:40:09.235Z,29.30
2017-07-21T10:42:37.665Z,32.20
2017-07-21T10:45:06.120Z,33.00
2017-07-21T10:47:34.584Z,33.20
2017-07-21T10:50:03.028Z,29.00
2017-07-21T10:52:31.527Z,29.60
2017-07-21T10:55:00.427Z,26.90
2017-07-21T10:57:28.870Z,24.10
2017-07-21T10:59:58.765Z,24.40
2017-07-21T11:02:27.644Z,26.10
2017-07-21T11:04:56.078Z,31.50
2017-07-21T11:07:25.429Z,35.20
2017-07-21T11:09:54.646Z,35.80
2017-07-21T11:12:23.087Z,36.00
2017-07-21T11:14:51.951Z,32.90
2017-07-21T11:17:20.371Z,31.00
2017-07-21T11:19:49.782Z,31.90
2017-07-21T11:22:18.627Z,33.50
2017-07-21T11:24:47.053Z,33.60
2017-07-21T11:27:15.527Z,28.30
2017-07-21T11:29:43.997Z,27.20
2017-07-21T11:32:12.444Z,29.60
2017-07-21T11:34:41.316Z,32.40
2017-07-21T11:37:09.777Z,32.50
2017-07-21T11:39:38.219Z,31.80
2017-07-21T11:42:06.685Z,31.90
2017-07-21T11:44:35.319Z,32.60
2017-07-21T11:47:04.155Z,38.30
2017-07-21T11:49:32.971Z,41.70
2017-07-21T11:52:01.462Z,35.20
2017-07-21T11:54:29.904Z,34.50
2017-07-21T11:56:59.099Z,38.00
2017-07-21T11:59:28.330Z,41.10
2017-07-21T12:01:56.759Z,43.10
2017-07-21T12:04:25.229Z,38.90
2017-07-21T12:06:53.720Z,37.40
2017-07-21T12:09:22.552Z,37.70
2017-07-21T12:11:51.019Z,35.80
2017-07-21T12:14:19.457Z,37.70
2017-07-21T12:16:47.945Z,41.00
2017-07-21T12:19:16.405Z,39.50
2017-07-21T12:21:45.500Z,38.20
2017-07-21T12:24:13.979Z,35.90
2017-07-21T12:26:43.559Z,31.50
2017-07-21T12:29:12.040Z,30.80
2017-07-21T12:31:40.469Z,29.60
2017-07-21T12:34:08.903Z,29.60
2017-07-21T12:36:37.385Z,31.40
2017-07-21T12:39:05.890Z,31.60
2017-07-21T12:41:34.342Z,32.30
2017-07-21T12:44:03.170Z,30.60
2017-07-21T12:46:32.485Z,29.00
2017-07-21T12:49:01.715Z,30.30
2017-07-21T12:51:30.144Z,29.60
2017-07-21T12:53:59.011Z,30.40
2017-07-21T12:56:28.213Z,29.30
2017-07-21T12:58:56.667Z,32.00
2017-07-21T13:01:25.096Z,28.60
2017-07-21T13:03:53.573Z,24.70
2017-07-21T13:06:22.779Z,28.30
2017-07-21T13:08:51.220Z,26.80
2017-07-21T13:11:20.827Z,29.30
2017-07-21T13:13:49.256Z,33.70
2017-07-21T13:16:17.739Z,37.90
2017-07-21T13:18:46.628Z,40.70
2017-07-21T13:21:15.061Z,41.80
2017-07-21T13:23:43.493Z,39.20
2017-07-21T13:26:12.738Z,34.40
2017-07-21T13:28:41.226Z,31.90
2017-07-21T13:31:09.681Z,27.60
2017-07-21T13:33:38.517Z,26.50
2017-07-21T13:36:07.045Z,30.30
2017-07-21T13:38:35.490Z,33.60
2017-07-21T13:41:04.688Z,32.10
2017-07-21T13:43:33.569Z,31.50
2017-07-21T13:46:02.026Z,28.90
2017-07-21T13:48:30.463Z,29.30
2017-07-21T13:50:58.931Z,30.10
2017-07-21T13:53:27.413Z,31.20
2017-07-21T13:55:55.851Z,28.80
2017-07-21T13:58:24.310Z,27.40
2017-07-21T14:00:53.749Z,30.90
2017-07-21T14:03:22.580Z,32.70
2017-07-21T14:05:51.790Z,34.10
2017-07-21T14:08:21.376Z,32.70
2017-07-21T14:10:50.583Z,34.10
2017-07-21T14:13:18.747Z,33.60
2017-07-21T14:15:47.948Z,35.90
2017-07-21T14:18:16.395Z,33.40
2017-07-21T14:20:45.653Z,34.00
2017-07-21T14:23:14.084Z,32.40
2017-07-21T14:25:42.903Z,33.90
2017-07-21T14:28:12.181Z,36.00
2017-07-21T14:30:42.113Z,33.20
2017-07-21T14:33:10.576Z,32.80
2017-07-21T14:35:39.048Z,31.20
2017-07-21T14:38:07.878Z,30.30
2017-07-21T14:40:36.355Z,29.00
2017-07-21T14:43:05.176Z,30.80
2017-07-21T14:45:34.008Z,31.50
2017-07-21T14:48:02.887Z,29.70
2017-07-21T14:50:31.343Z,30.80
2017-07-21T14:52:59.784Z,32.60
2017-07-21T14:55:28.300Z,34.10
2017-07-21T14:57:57.111Z,32.20
2017-07-21T15:00:25.533Z,32.90
2017-07-21T15:02:54.003Z,32.20
2017-07-21T15:05:22.489Z,31.00
2017-07-21T15:07:51.341Z,32.00
2017-07-21T15:10:21.324Z,32.00
2017-07-21T15:12:49.758Z,29.80
2017-07-21T15:15:18.248Z,29.30
2017-07-21T15:17:47.498Z,29.30
2017-07-21T15:20:16.317Z,31.50
2017-07-21T15:22:46.319Z,33.30
2017-07-21T15:25:14.753Z,32.50
2017-07-21T15:27:43.989Z,33.00
2017-07-21T15:30:12.432Z,33.10
2017-07-21T15:32:41.480Z,33.60
2017-07-21T15:35:10.707Z,33.40
2017-07-21T15:37:39.915Z,33.60
2017-07-21T15:40:08.766Z,33.60
2017-07-21T15:42:37.599Z,32.30
2017-07-21T15:45:06.103Z,33.20
2017-07-21T15:47:34.542Z,33.50
2017-07-21T15:50:02.974Z,35.00
2017-07-21T15:52:31.441Z,35.00
2017-07-21T15:54:59.895Z,35.60
2017-07-21T15:57:28.367Z,36.00
2017-07-21T15:59:56.806Z,35.30
2017-07-21T16:02:25.309Z,36.60
2017-07-21T16:04:54.512Z,35.90
2017-07-21T16:07:22.937Z,36.20
2017-07-21T16:09:51.422Z,36.20
2017-07-21T16:12:20.266Z,35.80
2017-07-21T16:14:48.695Z,36.90
2017-07-21T16:17:18.336Z,38.30
2017-07-21T16:19:46.751Z,39.80
2017-07-21T16:22:15.619Z,38.70
2017-07-21T16:24:45.222Z,39.30
2017-07-21T16:27:14.481Z,40.50
2017-07-21T16:29:43.315Z,42.10
2017-07-21T16:32:11.751Z,44.40
2017-07-21T16:34:41.019Z,43.80
2017-07-21T16:37:09.884Z,42.20
2017-07-21T16:39:38.755Z,39.20
2017-07-21T16:42:08.007Z,39.90
2017-07-21T16:44:36.892Z,39.50
2017-07-21T16:47:05.733Z,39.80
2017-07-21T16:49:34.180Z,41.50
2017-07-21T16:52:02.666Z,42.30
2017-07-21T16:54:31.131Z,43.00
2017-07-21T16:56:59.955Z,45.30
2017-07-21T16:59:28.848Z,44.10
2017-07-21T17:01:57.281Z,45.90
2017-07-21T17:04:26.117Z,47.00
2017-07-21T17:06:55.398Z,47.70
2017-07-21T17:09:23.834Z,47.40
2017-07-21T17:11:52.263Z,47.10
2017-07-21T17:14:20.788Z,46.50
2017-07-21T17:16:49.212Z,47.30
2017-07-21T17:19:19.362Z,48.50
2017-07-21T17:21:47.804Z,47.40
2017-07-21T17:24:16.665Z,47.50
2017-07-21T17:26:45.895Z,48.10
2017-07-21T17:29:14.373Z,48.70
2017-07-21T17:31:43.640Z,49.20
2017-07-21T17:34:12.094Z,49.10
2017-07-21T17:36:40.540Z,49.40
2017-07-21T17:39:09.023Z,49.70
2017-07-21T17:41:37.470Z,49.70
2017-07-21T17:44:05.916Z,49.00
2017-07-21T17:46:34.404Z,49.70
2017-07-21T17:49:02.836Z,50.30
2017-07-21T17:51:31.280Z,51.30
2017-07-21T17:54:00.173Z,51.30
2017-07-21T17:56:28.603Z,52.10
2017-07-21T17:58:57.100Z,52.70
2017-07-21T18:01:26.301Z,52.40
2017-07-21T18:03:54.927Z,53.10
2017-07-21T18:06:23.396Z,52.70
2017-07-21T18:08:51.822Z,51.70
2017-07-21T18:11:21.074Z,52.90
2017-07-21T18:13:49.899Z,53.10
2017-07-21T18:16:19.110Z,53.70
2017-07-21T18:18:47.565Z,54.00
2017-07-21T18:21:16.788Z,54.60
2017-07-21T18:23:45.297Z,55.50
2017-07-21T18:26:13.723Z,55.30
2017-07-21T18:28:43.810Z,56.10
2017-07-21T18:31:13.055Z,54.80
2017-07-21T18:33:41.488Z,54.80
2017-07-21T18:36:10.680Z,54.00
2017-07-21T18:38:39.569Z,54.10
2017-07-21T18:41:08.008Z,55.20
2017-07-21T18:43:37.205Z,55.00
2017-07-21T18:46:06.086Z,54.70
2017-07-21T18:48:34.431Z,54.30
2017-07-21T18:51:02.863Z,53.70
2017-07-21T18:53:31.302Z,53.50
2017-07-21T18:55:59.827Z,54.70
2017-07-21T18:58:28.258Z,53.50
2017-07-21T19:00:57.501Z,53.30
2017-07-21T19:03:25.934Z,53.60
2017-07-21T19:05:54.818Z,53.80
2017-07-21T19:08:23.252Z,54.90
2017-07-21T19:10:52.184Z,56.30
2017-07-21T19:13:21.767Z,57.80
2017-07-21T19:15:50.209Z,59.20
2017-07-21T19:18:18.691Z,58.20
2017-07-21T19:20:47.533Z,58.90
2017-07-21T19:23:16.424Z,61.00
2017-07-21T19:25:44.903Z,61.40
2017-07-21T19:28:13.361Z,59.20
2017-07-21T19:30:41.875Z,58.30
2017-07-21T19:33:10.724Z,56.90
2017-07-21T19:35:39.185Z,55.80
2017-07-21T19:38:07.731Z,55.70
2017-07-21T19:40:36.238Z,56.60
2017-07-21T19:43:04.673Z,55.50
2017-07-21T19:45:33.542Z,55.90
2017-07-21T19:48:01.970Z,55.90
2017-07-21T19:50:30.785Z,57.50
2017-07-21T19:52:59.287Z,59.10
2017-07-21T19:55:27.727Z,56.50
2017-07-21T19:57:56.169Z,57.30
2017-07-21T20:00:24.672Z,59.30
2017-07-21T20:02:53.110Z,59.10
2017-07-21T20:05:22.313Z,61.60
2017-07-21T20:07:51.207Z,60.60
2017-07-21T20:10:20.032Z,61.20
2017-07-21T20:12:48.876Z,62.50
2017-07-21T20:15:18.140Z,63.30
2017-07-21T20:17:46.584Z,64.40
2017-07-21T20:20:15.623Z,64.50
2017-07-21T20:22:44.094Z,65.60
2017-07-21T20:25:12.524Z,67.90
2017-07-21T20:27:40.958Z,69.00
2017-07-21T20:30:11.032Z,70.00
2017-07-21T20:32:39.672Z,69.80
2017-07-21T20:35:08.147Z,67.90
2017-07-21T20:37:38.155Z,66.10
2017-07-21T20:40:07.015Z,66.80
2017-07-21T20:42:36.834Z,67.80
2017-07-21T20:45:06.076Z,67.10
2017-07-21T20:50:05.499Z,66.10
2017-07-21T20:52:34.711Z,68.10
2017-07-21T20:55:03.572Z,70.40
2017-07-21T20:57:32.675Z,73.00
2017-07-21T21:00:01.897Z,76.50
2017-07-21T21:02:31.142Z,79.00
2017-07-21T21:04:59.827Z,83.00
2017-07-21T21:07:29.084Z,86.60
2017-07-21T21:09:57.943Z,87.20
2017-07-21T21:12:27.194Z,90.10
2017-07-21T21:14:55.659Z,92.80
2017-07-21T21:17:24.512Z,93.80
2017-07-21T21:19:53.260Z,95.60
2017-07-21T21:22:21.709Z,97.50
2017-07-21T21:24:50.233Z,98.50
2017-07-21T21:27:18.728Z,99.30
2017-07-21T21:29:48.048Z,99.60
2017-07-21T21:32:16.968Z,99.90
2017-07-21T21:34:45.857Z,99.90
2017-07-21T21:37:14.385Z,99.90
2017-07-21T21:39:43.613Z,99.90
2017-07-21T21:42:12.546Z,99.90
2017-07-21T21:44:41.094Z,99.90
2017-07-21T21:47:09.597Z,99.90
2017-07-21T21:49:38.094Z,99.90
2017-07-21T21:52:06.991Z,99.90
2017-07-21T21:54:35.582Z,99.90
2017-07-21T21:57:04.251Z,99.90
2017-07-21T21:59:33.549Z,99.90
2017-07-21T22:02:02.817Z,99.90
2017-07-21T22:04:32.139Z,99.90
2017-07-21T22:07:01.141Z,99.90
2017-07-21T22:09:31.009Z,99.90
2017-07-21T22:11:59.557Z,99.90
2017-07-21T22:14:30.457Z,99.90
2017-07-21T22:16:59.007Z,99.90
2017-07-21T22:19:27.689Z,99.90
2017-07-21T22:21:57.052Z,99.90
2017-07-21T22:24:26.304Z,99.90
2017-07-21T22:26:55.384Z,99.90
2017-07-21T22:29:27.839Z,99.90
2017-07-21T22:31:57.038Z,99.90
2017-07-21T22:34:26.194Z,99.90
2017-07-21T22:36:56.293Z,99.90
2017-07-21T22:39:25.876Z,99.90
2017-07-21T22:41:54.775Z,99.90
2017-07-21T22:44:23.490Z,99.90
2017-07-21T22:46:52.601Z,99.90
2017-07-21T22:49:21.869Z,99.90
2017-07-21T22:51:50.379Z,99.90
2017-07-21T22:54:20.633Z,99.90
2017-07-21T22:56:49.575Z,99.90
2017-07-21T22:59:18.049Z,99.90
2017-07-21T23:01:47.296Z,99.90
2017-07-21T23:04:16.117Z,99.90
2017-07-21T23:06:46.413Z,99.90
2017-07-21T23:09:15.351Z,99.90
2017-07-21T23:11:44.585Z,99.90
2017-07-21T23:14:13.123Z,99.90
2017-07-21T23:19:11.069Z,99.90
2017-07-21T23:21:40.733Z,99.90
2017-07-21T23:24:10.516Z,99.90
2017-07-21T23:26:38.996Z,99.90
2017-07-21T23:29:08.869Z,99.90
2017-07-21T23:31:37.325Z,99.90
2017-07-21T23:34:06.240Z,99.90
2017-07-21T23:36:35.288Z,99.90
2017-07-21T23:39:03.302Z,99.90
2017-07-21T23:41:31.829Z,99.90
2017-07-21T23:44:00.693Z,99.90
2017-07-21T23:46:29.533Z,99.90
2017-07-21T23:48:58.788Z,99.90
2017-07-21T23:51:27.821Z,99.90
2017-07-21T23:53:56.711Z,99.90
2017-07-21T23:56:25.841Z,99.90
2017-07-21T23:58:54.696Z,99.90
